Time;durP1;ratioP1;P1;durP2;ratioP2;P2;SDS_P1;SDS_P2;PMS_P1;PMS_P2;Temp;Humidity;BMP_temperature;BMP_pressure;BME280_temperature;BME280_humidity;BME280_pressure;Samples;Min_cycle;Max_cycle;Signal;HPM_P1;HPM_P2
2022/06/16 00:01:53;;;;;;;5.15;2.92;;;;;;;14.98;82.25;99076.53;4484288;32;20088;-72
2022/06/16 00:04:23;;;;;;;7.18;2.90;;;;;;;14.95;82.18;99076.84;4485469;31;20431;-72
2022/06/16 00:06:50;;;;;;;5.55;2.65;;;;;;;14.94;82.24;99075.19;4485735;31;20115;-72
2022/06/16 00:09:17;;;;;;;3.90;2.78;;;;;;;14.95;82.19;99071.59;4485333;31;20108;-72
2022/06/16 00:11:44;;;;;;;6.47;2.42;;;;;;;14.96;82.58;99072.41;4485470;31;20108;-72
2022/06/16 00:14:11;;;;;;;5.10;3.05;;;;;;;14.95;82.78;99071.59;4485562;31;20159;-72
2022/06/16 00:16:39;;;;;;;4.25;2.70;;;;;;;14.94;82.88;99064.66;4485203;31;20626;-72
2022/06/16 00:19:06;;;;;;;9.23;3.10;;;;;;;14.90;82.95;99064.16;4485509;31;20092;-72
2022/06/16 00:21:33;;;;;;;4.75;2.95;;;;;;;14.90;83.13;99065.97;4484975;31;20088;-71
2022/06/16 00:24:01;;;;;;;6.70;2.75;;;;;;;14.84;83.49;99063.97;4485122;31;20100;-72
2022/06/16 00:26:28;;;;;;;4.03;2.83;;;;;;;14.81;83.64;99064.28;4485515;31;20563;-72
2022/06/16 00:28:56;;;;;;;5.43;3.35;;;;;;;14.82;84.12;99063.28;4485541;31;20153;-72
2022/06/16 00:31:27;;;;;;;5.05;3.30;;;;;;;14.79;83.94;99061.78;4485385;31;20084;-72
2022/06/16 00:33:55;;;;;;;4.35;2.87;;;;;;;14.80;83.87;99054.69;4485246;31;20092;-72
2022/06/16 00:36:24;;;;;;;8.40;2.72;;;;;;;14.81;84.05;99053.72;4485284;31;20092;-72
2022/06/16 00:38:51;;;;;;;5.00;2.80;;;;;;;14.79;84.34;99047.75;4485272;31;20484;-71
2022/06/16 00:41:19;;;;;;;7.90;2.75;;;;;;;14.78;84.31;99048.75;4485203;31;20150;-71
2022/06/16 00:43:46;;;;;;;6.43;3.03;;;;;;;14.78;84.40;99049.59;4485331;31;20421;-71
2022/06/16 00:46:15;;;;;;;6.80;2.95;;;;;;;14.75;84.60;99049.06;4484990;31;20127;-72
2022/06/16 00:48:51;;;;;;;4.87;3.53;;;;;;;14.78;84.27;99049.59;4485330;32;20155;-71
2022/06/16 00:51:48;;;;;;;6.53;3.45;;;;;;;14.81;84.00;99040.53;4485387;31;20076;-71
2022/06/16 00:54:22;;;;;;;5.05;3.37;;;;;;;14.80;84.19;99046.78;4438918;32;20120;-72
2022/06/16 00:56:51;;;;;;;4.85;3.20;;;;;;;14.80;84.92;99038.88;4451783;32;20116;-71
2022/06/16 00:59:22;;;;;;;4.87;3.20;;;;;;;14.67;85.06;99037.50;4438727;32;20542;-72
2022/06/16 01:01:50;;;;;;;4.90;3.47;;;;;;;14.75;84.76;99036.72;4451383;32;20145;-72
2022/06/16 01:07:06;;;;;;;5.78;3.37;;;;;;;14.76;84.36;99033.09;4451753;32;20139;-72
2022/06/16 01:09:36;;;;;;;5.03;2.90;;;;;;;14.76;84.58;99029.62;4438712;32;20679;-72
2022/06/16 01:15:25;;;;;;;4.82;3.03;;;;;;;14.78;84.30;99023.22;4451120;32;20151;-71
2022/06/16 01:18:02;;;;;;;5.25;2.92;;;;;;;14.74;84.49;99024.50;4451138;32;20649;-71
2022/06/16 01:21:11;;;;;;;4.70;3.00;;;;;;;14.70;84.68;99018.72;4451020;32;20121;-71
2022/06/16 01:23:57;;;;;;;3.62;3.15;;;;;;;14.68;84.98;99011.94;4438753;32;20112;-72
2022/06/16 01:26:37;;;;;;;3.80;2.92;;;;;;;14.68;85.31;99012.75;4451152;32;20100;-71
2022/06/16 01:29:24;;;;;;;5.93;3.22;;;;;;;14.67;85.09;99016.41;4451422;32;20124;-71
2022/06/16 01:32:12;;;;;;;8.02;3.25;;;;;;;14.64;85.46;99016.72;4482878;32;20092;-72
2022/06/16 01:35:01;;;;;;;5.28;2.80;;;;;;;14.63;85.68;99008.97;4482444;32;20096;-72
2022/06/16 01:37:54;;;;;;;9.18;3.60;;;;;;;14.57;86.32;99005.09;4483638;32;20347;-72
2022/06/16 01:40:45;;;;;;;3.67;3.10;;;;;;;14.58;86.10;99006.78;4420169;32;20487;-71
2022/06/16 01:43:20;;;;;;;7.90;3.65;;;;;;;14.54;86.40;99003.59;4408002;32;20615;-71
2022/06/16 01:45:54;;;;;;;4.72;3.10;;;;;;;14.54;86.54;99008.88;4407588;32;20166;-71
2022/06/16 01:48:22;;;;;;;6.82;3.37;;;;;;;14.60;86.17;99011.88;4407575;32;20183;-71
2022/06/16 01:50:58;;;;;;;5.20;3.35;;;;;;;14.68;85.85;99004.84;4420438;32;20592;-71
2022/06/16 01:54:00;;;;;;;5.55;3.10;;;;;;;14.68;85.71;99004.84;4420134;32;20143;-72
2022/06/16 01:56:48;;;;;;;7.68;3.17;;;;;;;14.64;86.11;99010.59;4344752;33;20126;-72
2022/06/16 01:59:23;;;;;;;4.68;3.35;;;;;;;14.58;86.59;99003.28;4344907;33;20171;-71
2022/06/16 02:01:59;;;;;;;8.50;3.05;;;;;;;14.62;86.60;99009.94;4345139;33;20717;-71
2022/06/16 02:04:44;;;;;;;6.55;3.30;;;;;;;14.60;86.26;99002.16;4345098;33;20169;-72
2022/06/16 02:07:14;;;;;;;;;;;;;;;14.56;86.18;99003.44;4345119;33;20161;-71
2022/06/16 02:09:51;;;;;;;4.75;2.70;;;;;;;14.60;85.36;98996.88;4345112;33;20058;-72
2022/06/16 02:15:40;;;;;;;4.03;3.17;;;;;;;14.70;84.19;98994.16;4344871;33;20121;-71
2022/06/16 02:18:11;;;;;;;4.18;2.80;;;;;;;14.65;84.33;99002.53;4405868;32;20089;-72
2022/06/16 02:20:42;;;;;;;8.38;3.25;;;;;;;14.67;84.30;98994.47;4419851;32;20612;-72
2022/06/16 02:23:09;;;;;;;5.65;3.28;;;;;;;14.64;84.51;99000.91;4419583;32;20192;-71
2022/06/16 02:25:36;;;;;;;5.93;3.20;;;;;;;14.63;84.77;99001.06;4419599;32;20129;-71
2022/06/16 02:28:05;;;;;;;5.43;3.50;;;;;;;14.63;84.69;99006.34;4419909;32;20082;-71
2022/06/16 02:30:38;;;;;;;5.87;3.25;;;;;;;14.56;85.23;98992.91;4419717;32;20113;-71
2022/06/16 02:33:18;;;;;;;3.62;2.95;;;;;;;14.54;85.61;98997.50;4462153;32;20127;-72
2022/06/16 02:36:21;;;;;;;4.55;3.28;;;;;;;14.58;85.09;99004.13;4467307;32;20111;-72
2022/06/16 02:38:48;;;;;;;3.95;2.85;;;;;;;14.81;82.44;98996.53;4468378;32;20069;-72
2022/06/16 02:41:49;;;;;;;5.78;2.90;;;;;;;14.90;81.29;99000.03;4468372;32;20637;-71
2022/06/16 02:44:34;;;;;;;6.97;3.30;;;;;;;14.92;81.10;98998.03;4419638;32;20094;-71
2022/06/16 02:47:01;;;;;;;7.22;3.35;;;;;;;14.98;80.69;98996.59;4408781;32;20097;-71
2022/06/16 02:50:00;;;;;;;7.00;3.45;;;;;;;14.99;80.46;98998.22;4421849;32;20128;-71
2022/06/16 02:52:50;;;;;;;4.85;3.37;;;;;;;15.11;80.15;99006.66;4419178;32;21018;-71
2022/06/16 02:55:30;;;;;;;5.45;3.10;;;;;;;15.21;79.57;99002.91;4421610;32;20162;-71
2022/06/16 02:58:00;;;;;;;4.25;3.00;;;;;;;15.26;79.12;99002.41;4409201;32;20097;-71
2022/06/16 03:00:43;;;;;;;4.25;3.03;;;;;;;15.30;79.08;99008.22;4421877;32;20158;-71
2022/06/16 03:03:28;;;;;;;4.00;3.28;;;;;;;15.35;78.65;99003.25;4421345;32;20102;-72
2022/06/16 03:05:57;;;;;;;5.43;3.08;;;;;;;15.44;78.07;99003.13;4421899;32;20133;-72
2022/06/16 03:08:26;;;;;;;4.78;2.78;;;;;;;15.50;77.93;99006.91;4421499;32;20381;-71
2022/06/16 03:10:58;;;;;;;5.00;2.95;;;;;;;15.50;78.05;99001.63;4421717;32;20198;-71
2022/06/16 03:13:30;;;;;;;4.22;3.00;;;;;;;15.48;78.33;98998.34;4421197;32;20483;-71
2022/06/16 03:15:59;;;;;;;6.18;3.42;;;;;;;15.40;78.84;98999.16;4421586;32;20117;-71
2022/06/16 03:18:28;;;;;;;3.65;2.80;;;;;;;15.37;79.15;99001.31;4421354;32;20093;-71
2022/06/16 03:20:55;;;;;;;4.28;2.78;;;;;;;15.61;78.03;99006.62;4436429;32;20084;-71
2022/06/16 03:23:22;;;;;;;4.05;2.95;;;;;;;15.87;76.92;99007.50;4470158;32;20097;-71
2022/06/16 03:25:50;;;;;;;4.10;2.80;;;;;;;15.98;76.22;99009.78;4470515;32;20596;-71
2022/06/16 03:28:19;;;;;;;5.07;3.22;;;;;;;15.94;76.49;99006.66;4470344;32;20282;-71
2022/06/16 03:30:46;;;;;;;6.50;3.50;;;;;;;15.86;76.91;99006.66;4469705;32;20088;-71
2022/06/16 03:33:15;;;;;;;5.28;3.20;;;;;;;15.86;77.24;99009.28;4485958;31;20169;-71
2022/06/16 03:35:43;;;;;;;4.32;2.60;;;;;;;15.94;77.05;99008.47;4486160;31;20492;-71
2022/06/16 03:40:46;;;;;;;6.28;4.18;;;;;;;16.29;77.17;99007.28;4485835;32;20103;-71
2022/06/16 03:43:14;;;;;;;6.28;3.28;;;;;;;16.46;76.48;99008.06;4485700;31;20116;-71
2022/06/16 03:45:41;;;;;;;6.10;3.65;;;;;;;16.53;76.74;99010.03;4485893;31;20556;-72
2022/06/16 03:48:09;;;;;;;6.78;3.37;;;;;;;16.49;77.50;99007.72;4485871;31;20417;-71
2022/06/16 03:50:37;;;;;;;7.72;2.90;;;;;;;16.42;76.98;99006.75;4485881;32;20088;-71
2022/06/16 03:53:04;;;;;;;3.92;3.15;;;;;;;16.37;77.45;99009.09;4485706;31;20519;-72
2022/06/16 03:55:32;;;;;;;5.60;3.05;;;;;;;16.63;77.12;99008.84;4485752;32;20489;-72
2022/06/16 03:58:00;;;;;;;6.72;3.03;;;;;;;16.88;77.15;99007.97;4485069;31;20118;-72
2022/06/16 04:00:27;;;;;;;3.90;3.28;;;;;;;16.99;78.04;99007.59;4485680;31;20115;-71
2022/06/16 04:05:45;;;;;;;2.95;2.60;;;;;;;16.96;77.61;99008.75;4485778;31;20513;-72
2022/06/16 04:08:14;;;;;;;3.85;2.58;;;;;;;16.77;77.38;99015.25;4485731;31;20096;-72
2022/06/16 04:10:43;;;;;;;5.35;2.70;;;;;;;16.88;77.17;99011.44;4485658;31;20122;-72
2022/06/16 04:13:10;;;;;;;6.97;3.00;;;;;;;17.20;76.92;99020.22;4485694;31;20176;-72
2022/06/16 04:15:38;;;;;;;7.97;3.28;;;;;;;17.49;78.31;99024.84;4485377;31;20092;-72
2022/06/16 04:18:06;;;;;;;3.87;3.22;;;;;;;17.66;77.07;99016.78;4485680;31;20151;-72
2022/06/16 04:20:34;;;;;;;8.05;3.60;;;;;;;17.93;75.66;99027.91;4485396;31;20161;-72
2022/06/16 04:23:02;;;;;;;9.25;3.15;;;;;;;18.09;74.82;99025.06;4485824;31;20112;-72
2022/06/16 04:25:31;;;;;;;4.85;3.03;;;;;;;18.22;74.40;99033.25;4485491;31;20096;-72
2022/06/16 04:28:06;;;;;;;5.93;2.75;;;;;;;18.22;71.41;99030.59;4485546;31;20586;-72
2022/06/16 04:30:34;;;;;;;6.65;3.37;;;;;;;18.30;70.84;99032.34;4485654;32;20088;-72
2022/06/16 04:33:02;;;;;;;6.00;2.67;;;;;;;18.52;70.73;99029.84;4485664;31;20105;-72
2022/06/16 04:35:29;;;;;;;9.75;3.50;;;;;;;18.81;71.52;99029.00;4485371;31;20096;-72
2022/06/16 04:37:57;;;;;;;7.53;3.37;;;;;;;18.94;68.89;99033.66;4485684;31;20129;-72
2022/06/16 04:40:25;;;;;;;9.93;3.72;;;;;;;19.01;68.32;99029.28;4485476;31;20114;-72
2022/06/16 04:42:53;;;;;;;7.07;3.47;;;;;;;19.20;69.00;99027.88;4485620;31;20521;-72
2022/06/16 04:45:20;;;;;;;13.30;3.80;;;;;;;19.33;67.04;99022.72;4485490;31;20099;-72
2022/06/16 04:47:48;;;;;;;13.30;4.30;;;;;;;19.44;66.54;99023.22;4485219;31;20473;-72
2022/06/16 04:50:18;;;;;;;9.93;3.78;;;;;;;19.59;67.14;99032.00;4485480;31;20486;-72
2022/06/16 04:52:47;;;;;;;16.55;3.92;;;;;;;19.76;67.01;99027.25;4485458;31;20141;-72
2022/06/16 04:55:16;;;;;;;9.95;4.60;;;;;;;19.77;66.62;99030.72;4485491;31;20104;-72
2022/06/16 04:57:45;;;;;;;7.95;4.12;;;;;;;19.85;66.69;99028.78;4485288;31;20106;-72
2022/06/16 05:00:15;;;;;;;10.70;4.43;;;;;;;20.00;65.74;99031.38;4485402;32;20111;-72
2022/06/16 05:02:51;;;;;;;9.40;4.03;;;;;;;20.09;68.23;99037.38;4485555;31;20467;-72
2022/06/16 05:05:19;;;;;;;10.60;4.55;;;;;;;20.17;66.75;99039.91;4484815;31;20123;-72
2022/06/16 05:07:48;;;;;;;6.30;4.10;;;;;;;20.20;65.77;99038.69;4485357;31;20145;-72
2022/06/16 05:10:17;;;;;;;5.60;4.22;;;;;;;20.33;65.80;99038.81;4485265;31;20122;-72
2022/06/16 05:12:45;;;;;;;14.87;4.90;;;;;;;20.39;63.95;99040.69;4485480;31;20115;-72
2022/06/16 05:15:12;;;;;;;8.13;3.83;;;;;;;20.47;64.90;99038.88;4480421;31;20183;-72
2022/06/16 05:17:42;;;;;;;11.68;4.87;;;;;;;20.35;62.81;99041.25;4484564;31;20125;-72
2022/06/16 05:20:11;;;;;;;12.35;4.55;;;;;;;20.43;62.95;99043.75;4484322;31;20080;-72
2022/06/16 05:22:39;;;;;;;5.75;3.90;;;;;;;20.61;61.62;99035.28;4485196;31;20100;-72
2022/06/16 05:25:09;;;;;;;9.35;4.07;;;;;;;20.66;62.84;99043.53;4485016;31;20122;-72
2022/06/16 05:27:37;;;;;;;10.25;4.65;;;;;;;20.78;64.03;99032.34;4485140;31;20093;-72
2022/06/16 05:30:06;;;;;;;12.23;4.30;;;;;;;20.96;62.71;99039.81;4484892;31;20149;-72
2022/06/16 05:32:34;;;;;;;9.27;4.57;;;;;;;20.91;61.70;99037.75;4482101;31;20126;-71
2022/06/16 05:35:02;;;;;;;10.63;4.00;;;;;;;20.91;61.62;99043.06;4489812;31;20122;-72
2022/06/16 05:37:31;;;;;;;6.40;4.00;;;;;;;21.00;60.12;99039.22;4497298;31;20475;-71
2022/06/16 05:40:05;;;;;;;8.90;4.28;;;;;;;21.18;61.15;99038.69;4484350;32;20077;-72
2022/06/16 05:42:33;;;;;;;7.03;3.17;;;;;;;21.31;58.55;99029.06;4484998;31;20108;-72
2022/06/16 05:45:02;;;;;;;9.70;3.58;;;;;;;21.47;58.84;99038.53;4472695;31;20134;-72
2022/06/16 05:47:31;;;;;;;9.75;3.20;;;;;;;21.47;59.03;99034.03;4475275;31;20142;-71
2022/06/16 05:49:59;;;;;;;7.05;2.95;;;;;;;21.66;56.05;99034.31;4469032;32;20214;-72
2022/06/16 05:52:26;;;;;;;13.38;3.10;;;;;;;21.55;54.32;99036.53;4469700;32;20143;-71
2022/06/16 05:54:56;;;;;;;4.78;2.78;;;;;;;21.73;56.21;99043.16;4484746;31;20139;-72
2022/06/16 05:57:25;;;;;;;6.05;2.70;;;;;;;21.85;54.06;99040.69;4484345;31;20104;-72
2022/06/16 05:59:52;;;;;;;4.45;3.17;;;;;;;21.93;55.04;99043.16;4484630;31;20545;-72
2022/06/16 06:02:20;;;;;;;4.93;2.80;;;;;;;22.07;54.26;99038.66;4484545;31;20578;-72
2022/06/16 06:04:48;;;;;;;3.33;2.78;;;;;;;22.21;53.50;99039.47;4484464;31;20112;-72
2022/06/16 06:07:16;;;;;;;7.68;2.92;;;;;;;22.24;54.27;99036.38;4479207;31;20092;-72
2022/06/16 06:18:06;;;;;;;7.37;3.47;;;;;;;22.47;50.65;99044.81;4483242;32;20137;-72
2022/06/16 06:20:33;;;;;;;7.07;3.10;;;;;;;22.61;50.59;99042.94;4484638;31;20148;-72
2022/06/16 06:23:00;;;;;;;8.35;3.00;;;;;;;22.81;52.60;99040.22;4486261;31;20096;-72
2022/06/16 06:25:28;;;;;;;4.90;3.05;;;;;;;22.84;54.26;99044.31;4486505;31;20611;-72
2022/06/16 06:27:55;;;;;;;4.53;2.60;;;;;;;22.87;54.64;99041.22;4486009;31;20160;-72
2022/06/16 06:30:26;;;;;;;2.75;2.35;;;;;;;23.20;52.40;99037.66;4486239;31;20084;-72
2022/06/16 06:32:55;;;;;;;7.45;3.05;;;;;;;23.34;56.04;99038.41;4470004;32;20093;-72
2022/06/16 06:35:22;;;;;;;9.20;2.80;;;;;;;23.35;53.89;99035.50;4470575;32;20446;-72
2022/06/16 06:37:51;;;;;;;3.75;2.65;;;;;;;23.48;53.96;99034.63;4470349;32;20470;-72
2022/06/16 06:40:41;;;;;;;8.13;2.87;;;;;;;23.50;50.94;99037.09;4470697;32;20088;-72
2022/06/16 06:43:09;;;;;;;5.82;3.03;;;;;;;23.52;51.53;99045.72;4470367;32;20101;-72
2022/06/16 06:45:36;;;;;;;4.10;2.87;;;;;;;23.55;52.93;99046.09;4470565;32;20093;-72
2022/06/16 06:48:04;;;;;;;3.87;2.85;;;;;;;23.76;50.37;99046.78;4470131;32;20158;-72
2022/06/16 06:50:35;;;;;;;8.93;2.80;;;;;;;23.87;50.05;99038.09;4470410;32;20096;-72
2022/06/16 06:53:02;;;;;;;9.40;2.62;;;;;;;23.79;48.56;99038.34;4470411;32;20108;-72
2022/06/16 06:55:30;;;;;;;4.53;2.42;;;;;;;24.05;51.59;99040.00;4470208;32;20156;-72
2022/06/16 06:57:57;;;;;;;4.72;3.17;;;;;;;23.98;50.14;99041.09;4468964;32;20081;-72
2022/06/16 07:00:26;;;;;;;6.22;3.20;;;;;;;24.08;48.91;99044.12;4470380;32;20093;-72
2022/06/16 07:02:54;;;;;;;6.72;2.53;;;;;;;24.16;50.10;99041.16;4470230;32;20175;-72
2022/06/16 07:05:21;;;;;;;5.32;2.83;;;;;;;24.27;50.86;99045.81;4470132;32;20171;-72
2022/06/16 07:07:49;;;;;;;5.68;2.95;;;;;;;24.36;49.47;99045.53;4470167;32;20897;-72
2022/06/16 07:10:18;;;;;;;8.55;2.90;;;;;;;24.57;50.53;99047.81;4469061;32;20122;-72
2022/06/16 07:12:45;;;;;;;6.15;3.22;;;;;;;24.58;46.48;99043.28;4470547;32;20154;-72
2022/06/16 07:15:13;;;;;;;7.03;3.53;;;;;;;24.81;48.80;99045.31;4470162;32;20119;-72
2022/06/16 07:17:40;;;;;;;10.00;3.90;;;;;;;24.90;47.62;99046.63;4469944;32;20123;-72
2022/06/16 07:20:09;;;;;;;4.22;3.62;;;;;;;24.94;49.02;99041.66;4469971;32;20072;-72
2022/06/16 07:22:36;;;;;;;5.65;2.92;;;;;;;25.03;48.01;99042.19;4470113;32;20089;-72
2022/06/16 07:25:03;;;;;;;5.78;2.92;;;;;;;25.18;50.47;99036.41;4470218;32;20115;-72
2022/06/16 07:27:31;;;;;;;4.40;2.70;;;;;;;24.62;47.65;99034.59;4469982;32;20173;-72
2022/06/16 07:29:58;;;;;;;3.05;2.40;;;;;;;24.71;51.66;99043.16;4470267;32;20587;-72
2022/06/16 07:32:25;;;;;;;7.87;2.53;;;;;;;24.53;50.59;99043.13;4480338;32;20089;-72
2022/06/16 07:34:52;;;;;;;6.15;2.65;;;;;;;24.86;50.80;99041.94;4485855;31;20115;-72
2022/06/16 07:37:40;;;;;;;4.20;2.30;;;;;;;24.78;51.30;99037.72;4485496;32;20520;-72
2022/06/16 07:40:08;;;;;;;4.03;2.72;;;;;;;24.89;48.41;99033.47;4485716;31;20553;-72
2022/06/16 07:42:35;;;;;;;7.97;3.08;;;;;;;25.10;47.24;99042.91;4484371;32;20142;-72
2022/06/16 07:45:03;;;;;;;7.75;2.72;;;;;;;25.26;46.83;99034.25;4486019;31;20604;-73
2022/06/16 07:47:30;;;;;;;3.95;2.53;;;;;;;25.54;49.41;99029.34;4485236;31;20126;-72
2022/06/16 07:49:58;;;;;;;6.18;2.87;;;;;;;25.68;48.05;99033.50;4485740;32;20560;-72
2022/06/16 07:52:25;;;;;;;7.93;2.70;;;;;;;25.70;45.74;99028.72;4485575;31;20089;-72
2022/06/16 07:54:52;;;;;;;3.15;2.30;;;;;;;25.74;47.17;99037.09;4485721;31;20080;-72
2022/06/16 07:57:21;;;;;;;3.15;2.40;;;;;;;25.85;46.03;99036.34;4485671;32;20179;-72
2022/06/16 07:59:56;;;;;;;7.60;2.42;;;;;;;25.99;42.20;99035.09;4485664;31;20474;-72
2022/06/16 08:02:25;;;;;;;7.20;2.87;;;;;;;26.00;41.88;99027.88;4485617;31;20552;-72
2022/06/16 08:04:52;;;;;;;8.18;2.83;;;;;;;26.13;46.51;99024.13;4485572;32;20127;-72
2022/06/16 08:07:20;;;;;;;5.00;3.00;;;;;;;26.24;48.38;99020.66;4485577;31;20160;-72
2022/06/16 08:09:48;;;;;;;3.53;2.33;;;;;;;26.27;48.06;99024.72;4485421;31;20092;-72
2022/06/16 08:12:16;;;;;;;5.30;2.25;;;;;;;26.18;43.57;99021.59;4485360;32;20097;-72
2022/06/16 08:14:45;;;;;;;3.42;2.03;;;;;;;26.30;42.66;99022.41;4485485;31;20114;-72
2022/06/16 08:17:16;;;;;;;4.82;2.20;;;;;;;26.24;42.42;99026.03;4485190;32;20513;-72
2022/06/16 08:19:44;;;;;;;3.75;2.55;;;;;;;26.45;43.92;99024.63;4485539;32;20072;-72
2022/06/16 08:22:12;;;;;;;5.75;1.75;;;;;;;26.04;41.21;99029.03;4485626;31;20104;-72
2022/06/16 08:24:40;;;;;;;2.60;2.08;;;;;;;26.27;38.32;99038.97;4485383;31;20104;-72
2022/06/16 08:27:08;;;;;;;3.30;1.45;;;;;;;26.53;40.58;99028.81;4485498;31;20084;-72
2022/06/16 08:29:37;;;;;;;8.65;2.20;;;;;;;26.36;36.88;99029.53;4485519;31;20462;-72
2022/06/16 08:32:04;;;;;;;2.30;1.48;;;;;;;26.51;40.13;99033.59;4485465;31;20404;-72
2022/06/16 08:34:32;;;;;;;2.92;1.95;;;;;;;26.66;35.05;99033.09;4485429;31;20093;-72
2022/06/16 08:36:59;;;;;;;3.05;2.50;;;;;;;26.71;38.61;99036.75;4485494;31;20464;-73
2022/06/16 08:39:26;;;;;;;3.85;2.75;;;;;;;26.78;38.16;99035.81;4485207;31;20114;-72
2022/06/16 08:42:29;;;;;;;8.75;3.30;;;;;;;26.87;41.29;99042.44;4485336;31;20092;-72
2022/06/16 08:45:05;;;;;;;5.00;2.67;;;;;;;26.72;39.06;99040.25;4450955;32;20093;-72
2022/06/16 08:47:40;;;;;;;5.03;2.50;;;;;;;26.47;42.36;99035.13;4451431;32;20113;-72
2022/06/16 08:50:23;;;;;;;4.72;2.47;;;;;;;26.66;42.12;99030.41;4438818;32;20089;-72
2022/06/16 08:53:30;;;;;;;4.55;2.70;;;;;;;26.60;38.93;99036.75;4451730;32;20125;-72
2022/06/16 08:56:22;;;;;;;4.07;2.70;;;;;;;26.25;37.18;99032.19;4438988;32;20219;-72
2022/06/16 08:58:58;;;;;;;4.18;2.33;;;;;;;26.17;39.19;99044.91;4451348;32;20109;-72
2022/06/16 09:01:44;;;;;;;16.27;2.70;;;;;;;25.82;38.51;99042.97;4451517;32;20187;-72
2022/06/16 09:04:39;;;;;;;5.72;2.90;;;;;;;26.29;39.92;99039.56;4451477;32;20536;-73
2022/06/16 09:07:28;;;;;;;5.55;2.65;;;;;;;26.81;41.14;99041.53;4451571;32;20132;-72
2022/06/16 09:10:17;;;;;;;3.75;2.53;;;;;;;26.91;38.49;99039.06;4451371;32;20089;-72
2022/06/16 09:12:44;;;;;;;4.78;2.50;;;;;;;26.97;37.18;99037.28;4451551;32;20139;-72
2022/06/16 09:15:20;;;;;;;3.47;2.20;;;;;;;27.08;37.12;99022.97;4451232;32;20147;-72
2022/06/16 09:18:17;;;;;;;4.47;2.00;;;;;;;27.13;39.96;99029.53;4436049;32;84671;-72
2022/06/16 09:20:47;;;;;;;5.45;2.28;;;;;;;27.26;40.62;99019.28;4468824;32;20080;-72
2022/06/16 09:23:17;;;;;;;5.57;2.47;;;;;;;27.33;37.79;99021.88;4483975;32;20099;-72
2022/06/16 09:25:44;;;;;;;5.28;2.78;;;;;;;27.47;39.45;99027.78;4485089;31;20171;-72
2022/06/16 09:28:28;;;;;;;2.37;1.90;;;;;;;27.60;33.51;99023.97;4484941;31;20831;-72
2022/06/16 09:30:58;;;;;;;2.12;1.83;;;;;;;27.43;34.55;99019.38;4483679;32;20115;-72
2022/06/16 09:33:34;;;;;;;4.40;2.00;;;;;;;27.46;35.74;99025.34;4483629;32;20104;-72
2022/06/16 09:36:09;;;;;;;2.28;1.35;;;;;;;27.53;32.61;99023.31;4483692;32;20127;-72
2022/06/16 09:38:49;;;;;;;6.07;1.70;;;;;;;27.26;36.09;99019.28;4484952;31;20088;-72
2022/06/16 09:44:26;;;;;;;2.50;1.55;;;;;;;27.67;37.55;98996.91;4484997;32;20131;-72
2022/06/16 09:46:56;;;;;;;2.30;1.60;;;;;;;27.93;35.43;98995.44;4483264;32;20501;-72
2022/06/16 09:49:37;;;;;;;2.50;1.67;;;;;;;27.99;33.70;98996.38;4484735;31;20081;-72
2022/06/16 09:52:42;;;;;;;2.53;1.80;;;;;;;27.76;34.51;98998.12;4484730;31;20548;-72
2022/06/16 09:55:20;;;;;;;2.75;1.77;;;;;;;27.85;31.30;98993.16;4482206;32;20099;-73
2022/06/16 09:57:52;;;;;;;6.57;1.50;;;;;;;27.60;31.04;98987.13;4483252;32;20112;-72
2022/06/16 10:00:22;;;;;;;6.20;1.83;;;;;;;27.68;34.17;99002.03;4483089;32;20475;-72
2022/06/16 10:02:56;;;;;;;2.67;1.90;;;;;;;27.06;33.88;98998.22;4484521;31;20115;-72
2022/06/16 10:05:30;;;;;;;4.45;1.83;;;;;;;27.39;37.02;98995.87;4484559;31;20107;-72
2022/06/16 10:08:05;;;;;;;2.83;1.70;;;;;;;27.83;35.22;98995.25;4484517;31;20138;-72
2022/06/16 10:10:35;;;;;;;3.22;1.85;;;;;;;27.90;36.56;98991.34;4483061;32;20526;-72
2022/06/16 10:13:03;;;;;;;5.43;1.90;;;;;;;28.13;35.83;98993.09;4484681;31;20144;-72
2022/06/16 10:15:39;;;;;;;2.83;1.67;;;;;;;27.64;33.69;98992.81;4484227;31;20101;-72
2022/06/16 10:18:07;;;;;;;2.62;1.48;;;;;;;27.73;32.85;98982.47;4483324;32;20092;-72
2022/06/16 10:20:34;;;;;;;3.62;1.80;;;;;;;27.86;33.53;98984.00;4482691;32;20100;-72
2022/06/16 10:23:11;;;;;;;5.50;1.70;;;;;;;28.13;34.50;98987.72;4484193;31;20092;-72
2022/06/16 10:25:46;;;;;;;5.47;1.70;;;;;;;28.25;33.45;98986.78;4483015;32;20518;-72
2022/06/16 10:28:30;;;;;;;4.35;1.85;;;;;;;27.90;30.75;98985.16;4483107;32;20153;-73
2022/06/16 10:30:59;;;;;;;4.80;1.80;;;;;;;28.20;30.82;98990.22;4484119;31;20556;-72
2022/06/16 10:33:33;;;;;;;4.07;1.77;;;;;;;28.45;32.71;98992.47;4483989;31;20464;-72
2022/06/16 10:36:20;;;;;;;3.33;1.92;;;;;;;28.64;31.81;98997.56;4484090;31;20503;-72
2022/06/16 10:39:21;;;;;;;3.60;1.85;;;;;;;28.87;34.56;99003.78;4484054;31;20079;-73
2022/06/16 10:42:14;;;;;;;2.40;1.73;;;;;;;28.88;29.49;99000.03;4482653;32;20136;-73
2022/06/16 10:44:49;;;;;;;3.22;1.67;;;;;;;28.25;28.50;98987.63;4484022;31;20088;-73
2022/06/16 10:47:25;;;;;;;2.45;1.62;;;;;;;28.21;30.03;98991.06;4482470;32;20084;-72
2022/06/16 10:49:52;;;;;;;4.78;1.70;;;;;;;28.45;33.92;98997.84;4482807;32;20100;-73
2022/06/16 10:52:53;;;;;;;3.22;1.77;;;;;;;28.33;33.38;98997.94;4483935;31;20148;-72
2022/06/16 10:55:23;;;;;;;1.92;1.60;;;;;;;28.53;31.73;98983.12;4477496;32;20088;-73
2022/06/16 10:58:04;;;;;;;2.60;1.42;;;;;;;28.71;34.13;99000.91;4483889;32;20080;-73
2022/06/16 11:00:34;;;;;;;2.10;1.83;;;;;;;28.93;31.56;98997.38;4483639;31;20111;-72
2022/06/16 11:03:05;;;;;;;3.22;1.65;;;;;;;29.27;31.72;98986.47;4483732;31;20096;-72
2022/06/16 11:05:38;;;;;;;5.15;1.98;;;;;;;29.10;29.76;98981.94;4483731;31;20560;-73
2022/06/16 11:08:12;;;;;;;4.70;2.15;;;;;;;29.16;32.23;98980.09;4485754;31;20116;-72
2022/06/16 11:11:01;;;;;;;4.28;1.87;;;;;;;29.43;32.56;98972.03;4486017;31;20163;-72
2022/06/16 11:13:32;;;;;;;6.28;2.25;;;;;;;29.31;32.56;98965.97;4484705;32;20504;-72
2022/06/16 11:16:05;;;;;;;2.15;1.90;;;;;;;29.12;31.87;98960.91;4484432;32;20088;-72
2022/06/16 11:18:33;;;;;;;3.75;2.03;;;;;;;28.90;31.61;98954.75;4484478;32;20068;-72
2022/06/16 11:21:13;;;;;;;4.22;1.80;;;;;;;28.84;27.96;98952.00;4485571;32;20097;-73
2022/06/16 11:23:44;;;;;;;2.95;1.80;;;;;;;28.71;30.72;98947.00;4485819;31;20441;-73
2022/06/16 11:26:24;;;;;;;4.70;2.22;;;;;;;29.19;31.75;98948.03;4485979;31;20084;-72
2022/06/16 11:28:58;;;;;;;3.35;2.00;;;;;;;29.48;31.71;98939.69;4485923;32;20077;-73
2022/06/16 11:31:46;;;;;;;3.65;1.75;;;;;;;29.84;32.53;98942.69;4485678;31;20176;-72
2022/06/16 11:34:17;;;;;;;2.65;1.80;;;;;;;29.39;35.56;98935.84;4485730;31;20375;-72
2022/06/16 11:37:12;;;;;;;4.62;2.30;;;;;;;29.78;32.28;98941.00;4485772;31;20076;-73
2022/06/16 11:40:03;;;;;;;5.57;2.10;;;;;;;29.98;31.74;98958.44;4485660;31;20084;-73
2022/06/16 11:43:10;;;;;;;5.45;2.08;;;;;;;30.18;33.56;98941.56;4485418;31;20097;-73
2022/06/16 11:45:56;;;;;;;4.40;2.28;;;;;;;30.11;28.87;98928.25;4484414;32;20104;-73
2022/06/16 11:48:26;;;;;;;4.90;2.00;;;;;;;30.19;32.03;98925.09;4485552;31;20590;-72
2022/06/16 11:51:08;;;;;;;3.95;2.17;;;;;;;30.13;28.49;98917.19;4485684;32;20141;-73
2022/06/16 11:53:54;;;;;;;10.55;2.85;;;;;;;30.32;31.35;98906.75;4484258;32;20126;-73
2022/06/16 11:56:54;;;;;;;4.40;2.22;;;;;;;29.94;30.08;98914.13;4484377;32;20176;-72
2022/06/16 11:59:39;;;;;;;2.50;2.30;;;;;;;29.71;31.73;98914.22;4479165;32;20489;-73
2022/06/16 12:02:21;;;;;;;3.53;1.98;;;;;;;29.80;29.50;98909.16;4485515;31;20100;-72
2022/06/16 12:04:49;;;;;;;5.05;2.25;;;;;;;29.98;30.46;98909.81;4485685;31;20155;-72
2022/06/16 12:07:25;;;;;;;4.20;2.25;;;;;;;29.91;27.40;98905.47;4485487;32;20084;-72
2022/06/16 12:10:17;;;;;;;5.57;2.08;;;;;;;29.97;27.25;98906.31;4485460;32;20092;-72
2022/06/16 12:12:54;;;;;;;5.85;2.83;;;;;;;30.42;29.48;98907.62;4484110;32;20084;-73
2022/06/16 12:15:41;;;;;;;4.10;2.67;;;;;;;30.73;30.63;98899.62;4485544;31;20114;-72
2022/06/16 12:18:24;;;;;;;3.95;2.30;;;;;;;30.68;27.92;98898.81;4484590;31;20092;-72
2022/06/16 12:20:54;;;;;;;7.03;2.33;;;;;;;30.69;28.82;98903.13;4485369;32;20084;-73
2022/06/16 12:23:30;;;;;;;2.40;2.05;;;;;;;30.33;29.88;98903.78;4485257;31;20100;-73
2022/06/16 12:26:09;;;;;;;5.00;2.45;;;;;;;30.06;30.21;98903.94;4485695;31;20088;-73
2022/06/16 12:28:48;;;;;;;6.62;2.08;;;;;;;30.68;29.94;98902.31;4484271;32;20101;-73
2022/06/16 12:31:20;;;;;;;4.82;2.50;;;;;;;31.17;30.24;98906.50;4480219;32;20148;-72